createdAt,value
2019-04-05T09:36:05.597Z,6.26
2019-04-05T09:42:00.635Z,6.05
2019-04-05T09:47:55.605Z,6.82
2019-04-05T09:53:50.658Z,5.71
2019-04-05T09:59:45.692Z,5.01
2019-04-05T10:05:40.641Z,5.06
2019-04-05T10:11:35.657Z,4.59
2019-04-05T10:17:30.630Z,4.52
2019-04-05T10:23:25.682Z,4.69
2019-04-05T10:29:20.633Z,4.06
2019-04-05T10:35:15.668Z,5.36
2019-04-05T10:41:10.725Z,5.83
2019-04-05T10:47:05.643Z,4.95
2019-04-05T10:53:00.658Z,4.39
2019-04-05T10:58:55.692Z,5.62
2019-04-05T11:04:50.803Z,4.79
2019-04-05T11:10:45.696Z,4.41
2019-04-05T11:16:40.685Z,4.9
2019-04-05T11:22:35.674Z,4.38
2019-04-05T11:28:30.706Z,4.62
2019-04-05T11:34:25.727Z,4.9
2019-04-05T11:40:20.663Z,4.5
2019-04-05T11:46:18.055Z,4.19
2019-04-05T11:52:10.713Z,3.9
2019-04-05T11:58:05.691Z,3.84
2019-04-05T12:04:00.730Z,3.54
2019-04-05T12:09:55.727Z,2.59
2019-04-05T12:15:50.741Z,2.6
2019-04-05T12:21:45.747Z,2.91
2019-04-05T12:27:40.822Z,2.77
2019-04-05T12:33:35.787Z,1.88
2019-04-05T12:39:30.734Z,1.89
2019-04-05T12:45:25.707Z,1.73
2019-04-05T12:51:20.781Z,2.14
2019-04-05T12:57:15.763Z,2.42
2019-04-05T13:03:10.969Z,2.23
2019-04-05T13:09:06.209Z,2.94
2019-04-05T13:15:11.600Z,3.84
2019-04-05T13:20:55.883Z,2.19
2019-04-05T13:26:50.754Z,2.28
2019-04-05T13:32:45.754Z,2.11
2019-04-05T13:38:40.787Z,1.36
2019-04-05T13:44:35.783Z,1.86
2019-04-05T13:50:30.838Z,1.38
2019-04-05T13:56:25.864Z,1.47
2019-04-05T14:02:21.013Z,1.59
2019-04-05T14:08:15.772Z,2.05
2019-04-05T14:14:12.076Z,1.35
2019-04-05T14:20:05.814Z,1.33
2019-04-05T14:26:00.795Z,1.74
2019-04-05T14:31:55.814Z,1.73
2019-04-05T14:37:52.316Z,1.96
2019-04-05T14:43:45.819Z,1.86
2019-04-05T14:49:40.815Z,1.67
2019-04-05T14:55:35.821Z,2.23
2019-04-05T15:01:30.827Z,1.85
2019-04-05T15:07:25.846Z,2.19
2019-04-05T15:13:20.858Z,1.85
2019-04-05T15:19:15.826Z,2.18
2019-04-05T15:25:10.827Z,2.23
2019-04-05T15:31:05.859Z,1.9
2019-04-05T15:37:01.533Z,4.97
2019-04-05T15:42:55.843Z,3.52
2019-04-05T15:48:51.748Z,2.67
2019-04-05T15:54:45.862Z,4.37
2019-04-05T16:00:40.940Z,3.82
2019-04-05T16:06:37.719Z,2.78
2019-04-05T16:12:30.891Z,2.4
2019-04-05T16:18:25.880Z,2.12
2019-04-05T16:24:20.911Z,2.08
2019-04-05T16:30:15.924Z,1.65
2019-04-05T16:36:10.884Z,2.06
2019-04-05T16:42:05.894Z,2.32
2019-04-05T16:48:00.926Z,2.44
2019-04-05T16:53:55.886Z,2.64
2019-04-05T16:59:50.913Z,3.38
2019-04-05T17:05:45.952Z,2.69
2019-04-05T17:11:40.987Z,2.15
2019-04-05T17:17:35.901Z,2.38
2019-04-05T17:23:33.092Z,2.48
2019-04-05T17:29:25.911Z,3.65
2019-04-05T17:35:20.931Z,5.2
2019-04-05T17:41:15.944Z,10.43
2019-04-05T17:47:10.921Z,5.17
2019-04-05T17:53:12.458Z,2.41
2019-04-05T17:59:00.954Z,4.27
2019-04-05T18:04:55.930Z,3.18
2019-04-05T18:10:50.943Z,5.34
2019-04-05T18:16:45.953Z,4.95
2019-04-05T18:22:40.969Z,2.8
2019-04-05T18:28:35.960Z,3.38
2019-04-05T18:34:30.964Z,6.64
2019-04-05T18:40:25.956Z,6.31
2019-04-05T18:46:20.978Z,5.84
2019-04-05T18:52:15.983Z,4.28
2019-04-05T18:58:10.957Z,3.21
2019-04-05T19:04:06.099Z,3.41
2019-04-05T19:10:00.977Z,3.43
2019-04-05T19:15:55.982Z,3.97
2019-04-05T19:21:51.001Z,3.07
2019-04-05T19:27:45.999Z,3.62
2019-04-05T19:51:25.987Z,2.89
2019-04-05T19:57:21.042Z,3.09
2019-04-05T20:03:16.085Z,2.77
2019-04-05T20:09:11.060Z,2.91
2019-04-05T20:15:06.017Z,2.78
2019-04-05T20:21:01.063Z,2.31
2019-04-05T20:26:56.022Z,2.66
2019-04-05T20:32:51.026Z,2.4
2019-04-05T20:38:46.031Z,2.52
2019-04-05T20:44:41.036Z,2.67
2019-04-05T20:50:36.068Z,3.21
2019-04-05T20:56:31.065Z,3.58
2019-04-05T21:02:26.042Z,2.67
2019-04-05T21:08:21.067Z,2.9
2019-04-05T21:14:16.077Z,2.16
2019-04-05T21:20:11.083Z,2.49
2019-04-05T21:26:06.078Z,2.76
2019-04-05T21:32:01.044Z,2.52
2019-04-05T21:37:56.066Z,2.48
2019-04-05T21:43:51.076Z,2.21
2019-04-05T21:49:46.061Z,2.1
2019-04-05T21:55:41.104Z,4.55
2019-04-05T22:01:36.118Z,3.16
2019-04-05T22:07:31.119Z,3.17
2019-04-05T22:13:26.118Z,3.54
2019-04-05T22:19:21.108Z,3.63
2019-04-05T22:25:16.118Z,3.23
2019-04-05T22:31:11.098Z,2.46
2019-04-05T22:37:06.133Z,2.66
2019-04-05T22:43:01.139Z,2.73
2019-04-05T22:48:56.113Z,2.61
2019-04-05T22:54:51.110Z,2.66
2019-04-05T23:00:46.153Z,1.97
2019-04-05T23:06:41.080Z,2.19
2019-04-05T23:12:36.176Z,2.33
2019-04-05T23:18:31.115Z,2.32
2019-04-05T23:24:26.114Z,1.97
2019-04-05T23:30:21.118Z,3.01
2019-04-05T23:36:16.174Z,2.33
2019-04-05T23:42:11.155Z,2.67
2019-04-05T23:48:06.217Z,2.51
2019-04-05T23:54:01.122Z,2.48
2019-04-05T23:59:56.133Z,2.63
